sensor_id;sensor_type;location;lat;lon;timestamp;P1;durP1;ratioP1;P2;durP2;ratioP2
6292;SDS011;3179;54.350;10.102;2022-12-01T00:00:58;61.47;;;34.00;;
6292;SDS011;3179;54.350;10.102;2022-12-01T00:03:28;61.33;;;33.73;;
6292;SDS011;3179;54.350;10.102;2022-12-01T00:05:58;59.60;;;33.37;;
6292;SDS011;3179;54.350;10.102;2022-12-01T00:08:25;66.80;;;35.97;;
6292;SDS011;3179;54.350;10.102;2022-12-01T00:10:52;61.00;;;34.20;;
6292;SDS011;3179;54.350;10.102;2022-12-01T00:13:18;61.50;;;35.23;;
6292;SDS011;3179;54.350;10.102;2022-12-01T00:15:46;59.47;;;33.53;;
6292;SDS011;3179;54.350;10.102;2022-12-01T00:18:13;60.10;;;34.40;;
6292;SDS011;3179;54.350;10.102;2022-12-01T00:20:40;61.77;;;34.57;;
6292;SDS011;3179;54.350;10.102;2022-12-01T00:23:07;61.23;;;34.70;;
6292;SDS011;3179;54.350;10.102;2022-12-01T00:25:34;65.63;;;35.40;;
6292;SDS011;3179;54.350;10.102;2022-12-01T00:28:00;63.87;;;34.93;;
6292;SDS011;3179;54.350;10.102;2022-12-01T00:30:27;58.50;;;33.83;;
6292;SDS011;3179;54.350;10.102;2022-12-01T00:32:55;57.93;;;34.07;;
6292;SDS011;3179;54.350;10.102;2022-12-01T00:35:22;59.60;;;34.60;;
6292;SDS011;3179;54.350;10.102;2022-12-01T00:37:49;60.47;;;33.83;;
6292;SDS011;3179;54.350;10.102;2022-12-01T00:40:15;65.77;;;36.80;;
6292;SDS011;3179;54.350;10.102;2022-12-01T00:42:42;58.63;;;33.57;;
6292;SDS011;3179;54.350;10.102;2022-12-01T00:45:09;59.60;;;33.30;;
6292;SDS011;3179;54.350;10.102;2022-12-01T00:47:37;62.37;;;33.87;;
6292;SDS011;3179;54.350;10.102;2022-12-01T00:50:05;65.53;;;35.10;;
6292;SDS011;3179;54.350;10.102;2022-12-01T00:52:32;66.93;;;36.43;;
6292;SDS011;3179;54.350;10.102;2022-12-01T00:54:59;55.83;;;33.20;;
6292;SDS011;3179;54.350;10.102;2022-12-01T00:57:26;61.87;;;35.30;;
6292;SDS011;3179;54.350;10.102;2022-12-01T00:59:53;59.93;;;34.50;;
6292;SDS011;3179;54.350;10.102;2022-12-01T01:02:19;60.60;;;35.17;;
6292;SDS011;3179;54.350;10.102;2022-12-01T01:04:46;56.37;;;32.87;;
6292;SDS011;3179;54.350;10.102;2022-12-01T01:07:14;56.37;;;31.70;;
6292;SDS011;3179;54.350;10.102;2022-12-01T01:09:41;59.17;;;32.20;;
6292;SDS011;3179;54.350;10.102;2022-12-01T01:12:08;53.77;;;32.30;;
6292;SDS011;3179;54.350;10.102;2022-12-01T01:14:35;62.60;;;36.70;;
6292;SDS011;3179;54.350;10.102;2022-12-01T01:17:02;57.60;;;31.80;;
6292;SDS011;3179;54.350;10.102;2022-12-01T01:19:29;57.40;;;33.63;;
6292;SDS011;3179;54.350;10.102;2022-12-01T01:21:56;55.23;;;32.63;;
6292;SDS011;3179;54.350;10.102;2022-12-01T01:24:24;58.30;;;32.83;;
6292;SDS011;3179;54.350;10.102;2022-12-01T01:26:51;54.00;;;30.63;;
6292;SDS011;3179;54.350;10.102;2022-12-01T01:29:19;66.20;;;34.00;;
6292;SDS011;3179;54.350;10.102;2022-12-01T01:31:46;57.67;;;33.40;;
6292;SDS011;3179;54.350;10.102;2022-12-01T01:34:13;59.30;;;33.97;;
6292;SDS011;3179;54.350;10.102;2022-12-01T01:36:39;56.87;;;31.30;;
6292;SDS011;3179;54.350;10.102;2022-12-01T01:39:06;58.23;;;32.63;;
6292;SDS011;3179;54.350;10.102;2022-12-01T01:41:35;60.37;;;32.83;;
6292;SDS011;3179;54.350;10.102;2022-12-01T01:44:02;58.80;;;31.13;;
6292;SDS011;3179;54.350;10.102;2022-12-01T01:46:29;58.30;;;33.00;;
6292;SDS011;3179;54.350;10.102;2022-12-01T01:48:59;54.43;;;31.67;;
6292;SDS011;3179;54.350;10.102;2022-12-01T01:51:28;56.50;;;30.53;;
6292;SDS011;3179;54.350;10.102;2022-12-01T01:54:00;57.43;;;31.33;;
6292;SDS011;3179;54.350;10.102;2022-12-01T01:56:29;59.93;;;32.17;;
6292;SDS011;3179;54.350;10.102;2022-12-01T01:58:57;62.53;;;33.57;;
6292;SDS011;3179;54.350;10.102;2022-12-01T02:01:25;53.70;;;32.87;;
6292;SDS011;3179;54.350;10.102;2022-12-01T02:03:52;53.03;;;30.73;;
6292;SDS011;3179;54.350;10.102;2022-12-01T02:06:20;57.00;;;31.80;;
6292;SDS011;3179;54.350;10.102;2022-12-01T02:08:48;58.83;;;32.20;;
6292;SDS011;3179;54.350;10.102;2022-12-01T02:11:22;59.03;;;31.83;;
6292;SDS011;3179;54.350;10.102;2022-12-01T02:14:20;63.93;;;32.40;;
6292;SDS011;3179;54.350;10.102;2022-12-01T02:17:13;54.80;;;29.57;;
6292;SDS011;3179;54.350;10.102;2022-12-01T02:19:55;56.30;;;31.07;;
6292;SDS011;3179;54.350;10.102;2022-12-01T02:22:47;53.47;;;30.20;;
6292;SDS011;3179;54.350;10.102;2022-12-01T02:25:31;50.83;;;28.73;;
6292;SDS011;3179;54.350;10.102;2022-12-01T02:28:13;57.63;;;30.60;;
6292;SDS011;3179;54.350;10.102;2022-12-01T02:31:01;52.57;;;28.13;;
6292;SDS011;3179;54.350;10.102;2022-12-01T02:33:34;49.03;;;28.47;;
6292;SDS011;3179;54.350;10.102;2022-12-01T02:36:08;49.23;;;29.00;;
6292;SDS011;3179;54.350;10.102;2022-12-01T02:38:44;54.60;;;29.53;;
6292;SDS011;3179;54.350;10.102;2022-12-01T02:41:17;48.37;;;27.93;;
6292;SDS011;3179;54.350;10.102;2022-12-01T02:43:55;47.77;;;28.97;;
6292;SDS011;3179;54.350;10.102;2022-12-01T02:46:29;53.07;;;27.40;;
6292;SDS011;3179;54.350;10.102;2022-12-01T02:49:01;50.37;;;27.30;;
6292;SDS011;3179;54.350;10.102;2022-12-01T02:51:33;50.90;;;26.63;;
6292;SDS011;3179;54.350;10.102;2022-12-01T02:54:02;46.77;;;25.27;;
6292;SDS011;3179;54.350;10.102;2022-12-01T02:56:31;49.87;;;25.67;;
6292;SDS011;3179;54.350;10.102;2022-12-01T02:58:58;47.30;;;25.53;;
6292;SDS011;3179;54.350;10.102;2022-12-01T03:04:34;43.23;;;24.47;;
6292;SDS011;3179;54.350;10.102;2022-12-01T03:07:12;47.40;;;26.10;;
6292;SDS011;3179;54.350;10.102;2022-12-01T03:09:53;45.03;;;25.10;;
6292;SDS011;3179;54.350;10.102;2022-12-01T03:12:31;39.50;;;23.80;;
6292;SDS011;3179;54.350;10.102;2022-12-01T03:15:04;43.70;;;27.20;;
6292;SDS011;3179;54.350;10.102;2022-12-01T03:17:39;38.97;;;23.07;;
6292;SDS011;3179;54.350;10.102;2022-12-01T03:20:14;42.70;;;25.40;;
6292;SDS011;3179;54.350;10.102;2022-12-01T03:22:47;45.30;;;24.03;;
6292;SDS011;3179;54.350;10.102;2022-12-01T03:25:18;39.30;;;23.10;;
6292;SDS011;3179;54.350;10.102;2022-12-01T03:27:46;42.67;;;23.50;;
6292;SDS011;3179;54.350;10.102;2022-12-01T03:30:20;43.13;;;24.80;;
6292;SDS011;3179;54.350;10.102;2022-12-01T03:32:51;40.83;;;22.43;;
6292;SDS011;3179;54.350;10.102;2022-12-01T03:35:22;42.10;;;22.47;;
6292;SDS011;3179;54.350;10.102;2022-12-01T03:37:57;37.17;;;22.00;;
6292;SDS011;3179;54.350;10.102;2022-12-01T03:40:30;41.93;;;22.90;;
6292;SDS011;3179;54.350;10.102;2022-12-01T03:43:01;42.00;;;21.40;;
6292;SDS011;3179;54.350;10.102;2022-12-01T03:45:33;43.70;;;23.07;;
6292;SDS011;3179;54.350;10.102;2022-12-01T03:48:08;42.23;;;24.17;;
6292;SDS011;3179;54.350;10.102;2022-12-01T03:50:35;37.53;;;22.77;;
6292;SDS011;3179;54.350;10.102;2022-12-01T03:53:09;41.20;;;22.57;;
6292;SDS011;3179;54.350;10.102;2022-12-01T03:55:43;39.63;;;21.63;;
6292;SDS011;3179;54.350;10.102;2022-12-01T03:58:16;40.27;;;22.60;;
6292;SDS011;3179;54.350;10.102;2022-12-01T04:00:46;35.43;;;21.73;;
6292;SDS011;3179;54.350;10.102;2022-12-01T04:03:25;38.93;;;22.63;;
6292;SDS011;3179;54.350;10.102;2022-12-01T04:05:55;40.37;;;21.17;;
6292;SDS011;3179;54.350;10.102;2022-12-01T04:08:23;34.83;;;20.97;;
6292;SDS011;3179;54.350;10.102;2022-12-01T04:10:51;37.73;;;21.73;;
6292;SDS011;3179;54.350;10.102;2022-12-01T04:13:17;37.70;;;22.07;;
6292;SDS011;3179;54.350;10.102;2022-12-01T04:15:47;32.07;;;20.17;;
6292;SDS011;3179;54.350;10.102;2022-12-01T04:18:16;42.10;;;22.40;;
6292;SDS011;3179;54.350;10.102;2022-12-01T04:20:44;36.50;;;20.50;;
6292;SDS011;3179;54.350;10.102;2022-12-01T04:23:11;38.03;;;21.27;;
6292;SDS011;3179;54.350;10.102;2022-12-01T04:25:59;36.07;;;21.10;;
6292;SDS011;3179;54.350;10.102;2022-12-01T04:28:26;35.53;;;21.23;;
6292;SDS011;3179;54.350;10.102;2022-12-01T04:30:53;35.47;;;21.70;;
6292;SDS011;3179;54.350;10.102;2022-12-01T04:33:21;38.87;;;22.40;;
6292;SDS011;3179;54.350;10.102;2022-12-01T04:35:54;37.83;;;21.90;;
6292;SDS011;3179;54.350;10.102;2022-12-01T04:38:22;41.50;;;24.27;;
6292;SDS011;3179;54.350;10.102;2022-12-01T04:40:49;42.50;;;22.67;;
6292;SDS011;3179;54.350;10.102;2022-12-01T04:43:15;39.23;;;22.30;;
6292;SDS011;3179;54.350;10.102;2022-12-01T04:45:42;39.97;;;22.73;;
6292;SDS011;3179;54.350;10.102;2022-12-01T04:48:09;40.90;;;23.13;;
6292;SDS011;3179;54.350;10.102;2022-12-01T04:50:37;43.00;;;24.90;;
6292;SDS011;3179;54.350;10.102;2022-12-01T04:53:05;51.20;;;27.93;;
6292;SDS011;3179;54.350;10.102;2022-12-01T04:55:35;50.73;;;27.70;;
6292;SDS011;3179;54.350;10.102;2022-12-01T04:58:02;51.77;;;27.90;;
6292;SDS011;3179;54.350;10.102;2022-12-01T05:00:30;53.27;;;30.43;;
6292;SDS011;3179;54.350;10.102;2022-12-01T05:02:57;56.20;;;29.20;;
6292;SDS011;3179;54.350;10.102;2022-12-01T05:05:24;55.27;;;28.93;;
6292;SDS011;3179;54.350;10.102;2022-12-01T05:07:53;58.20;;;30.80;;
6292;SDS011;3179;54.350;10.102;2022-12-01T05:10:19;63.83;;;33.07;;
6292;SDS011;3179;54.350;10.102;2022-12-01T05:12:46;58.60;;;33.20;;
6292;SDS011;3179;54.350;10.102;2022-12-01T05:15:13;58.97;;;32.90;;
6292;SDS011;3179;54.350;10.102;2022-12-01T05:17:40;60.70;;;30.70;;
6292;SDS011;3179;54.350;10.102;2022-12-01T05:20:07;66.50;;;33.93;;
6292;SDS011;3179;54.350;10.102;2022-12-01T05:22:58;62.70;;;33.40;;
6292;SDS011;3179;54.350;10.102;2022-12-01T05:25:24;59.10;;;30.33;;
6292;SDS011;3179;54.350;10.102;2022-12-01T05:27:51;61.47;;;32.07;;
6292;SDS011;3179;54.350;10.102;2022-12-01T05:30:18;57.87;;;31.23;;
6292;SDS011;3179;54.350;10.102;2022-12-01T05:32:45;58.53;;;31.80;;
6292;SDS011;3179;54.350;10.102;2022-12-01T05:35:12;56.63;;;30.70;;
6292;SDS011;3179;54.350;10.102;2022-12-01T05:37:38;64.07;;;34.10;;
6292;SDS011;3179;54.350;10.102;2022-12-01T05:40:07;64.23;;;33.77;;
6292;SDS011;3179;54.350;10.102;2022-12-01T05:42:35;59.07;;;33.27;;
6292;SDS011;3179;54.350;10.102;2022-12-01T05:45:01;71.07;;;36.23;;
6292;SDS011;3179;54.350;10.102;2022-12-01T05:47:28;59.00;;;32.90;;
6292;SDS011;3179;54.350;10.102;2022-12-01T05:49:55;63.07;;;32.80;;
6292;SDS011;3179;54.350;10.102;2022-12-01T05:52:22;61.20;;;33.83;;
6292;SDS011;3179;54.350;10.102;2022-12-01T05:54:49;63.53;;;34.23;;
6292;SDS011;3179;54.350;10.102;2022-12-01T05:57:17;67.83;;;34.13;;
6292;SDS011;3179;54.350;10.102;2022-12-01T05:59:44;61.63;;;32.83;;
6292;SDS011;3179;54.350;10.102;2022-12-01T06:02:11;65.43;;;34.07;;
6292;SDS011;3179;54.350;10.102;2022-12-01T06:04:37;62.57;;;33.60;;
6292;SDS011;3179;54.350;10.102;2022-12-01T06:07:04;60.50;;;32.13;;
6292;SDS011;3179;54.350;10.102;2022-12-01T06:09:31;67.93;;;35.17;;
6292;SDS011;3179;54.350;10.102;2022-12-01T06:11:58;62.83;;;32.93;;
6292;SDS011;3179;54.350;10.102;2022-12-01T06:14:26;59.43;;;31.80;;
6292;SDS011;3179;54.350;10.102;2022-12-01T06:16:52;69.90;;;36.40;;
6292;SDS011;3179;54.350;10.102;2022-12-01T06:19:19;64.37;;;35.10;;
6292;SDS011;3179;54.350;10.102;2022-12-01T06:21:46;61.60;;;33.60;;
6292;SDS011;3179;54.350;10.102;2022-12-01T06:24:13;62.37;;;31.27;;
6292;SDS011;3179;54.350;10.102;2022-12-01T06:26:40;63.63;;;34.00;;
6292;SDS011;3179;54.350;10.102;2022-12-01T06:29:08;65.43;;;35.53;;
6292;SDS011;3179;54.350;10.102;2022-12-01T06:31:36;60.20;;;32.47;;
6292;SDS011;3179;54.350;10.102;2022-12-01T06:34:03;63.77;;;34.30;;
6292;SDS011;3179;54.350;10.102;2022-12-01T06:36:30;60.23;;;32.73;;
6292;SDS011;3179;54.350;10.102;2022-12-01T06:38:56;63.17;;;32.80;;
6292;SDS011;3179;54.350;10.102;2022-12-01T06:41:23;62.40;;;32.53;;
6292;SDS011;3179;54.350;10.102;2022-12-01T06:43:50;61.97;;;34.83;;
6292;SDS011;3179;54.350;10.102;2022-12-01T06:46:17;65.13;;;33.30;;
6292;SDS011;3179;54.350;10.102;2022-12-01T06:48:47;65.67;;;33.53;;
6292;SDS011;3179;54.350;10.102;2022-12-01T06:51:14;62.10;;;32.27;;
6292;SDS011;3179;54.350;10.102;2022-12-01T06:53:41;61.77;;;32.13;;
6292;SDS011;3179;54.350;10.102;2022-12-01T06:56:07;64.73;;;33.63;;
6292;SDS011;3179;54.350;10.102;2022-12-01T06:58:34;58.93;;;31.30;;
6292;SDS011;3179;54.350;10.102;2022-12-01T07:01:06;63.23;;;32.33;;
6292;SDS011;3179;54.350;10.102;2022-12-01T07:03:33;59.50;;;32.23;;
6292;SDS011;3179;54.350;10.102;2022-12-01T07:06:01;61.13;;;33.40;;
6292;SDS011;3179;54.350;10.102;2022-12-01T07:08:29;60.90;;;33.33;;
6292;SDS011;3179;54.350;10.102;2022-12-01T07:10:57;65.67;;;32.47;;
6292;SDS011;3179;54.350;10.102;2022-12-01T07:13:24;70.73;;;35.70;;
6292;SDS011;3179;54.350;10.102;2022-12-01T07:15:51;59.03;;;32.17;;
6292;SDS011;3179;54.350;10.102;2022-12-01T07:18:17;61.00;;;32.20;;
6292;SDS011;3179;54.350;10.102;2022-12-01T07:20:44;65.80;;;33.00;;
6292;SDS011;3179;54.350;10.102;2022-12-01T07:23:12;60.20;;;32.93;;
6292;SDS011;3179;54.350;10.102;2022-12-01T07:25:39;61.33;;;31.83;;
6292;SDS011;3179;54.350;10.102;2022-12-01T07:28:06;61.90;;;33.10;;
6292;SDS011;3179;54.350;10.102;2022-12-01T07:30:33;58.30;;;32.13;;
6292;SDS011;3179;54.350;10.102;2022-12-01T07:33:00;72.63;;;35.90;;
6292;SDS011;3179;54.350;10.102;2022-12-01T07:35:26;67.10;;;35.80;;
6292;SDS011;3179;54.350;10.102;2022-12-01T07:37:53;63.87;;;33.87;;
6292;SDS011;3179;54.350;10.102;2022-12-01T07:40:21;68.33;;;35.43;;
6292;SDS011;3179;54.350;10.102;2022-12-01T07:42:48;65.33;;;34.27;;
6292;SDS011;3179;54.350;10.102;2022-12-01T07:45:15;68.57;;;36.80;;
6292;SDS011;3179;54.350;10.102;2022-12-01T07:47:42;64.43;;;34.70;;
6292;SDS011;3179;54.350;10.102;2022-12-01T07:50:09;67.67;;;35.67;;
6292;SDS011;3179;54.350;10.102;2022-12-01T07:52:37;67.87;;;35.20;;
6292;SDS011;3179;54.350;10.102;2022-12-01T07:55:04;69.20;;;36.10;;
6292;SDS011;3179;54.350;10.102;2022-12-01T07:57:34;69.13;;;34.90;;
6292;SDS011;3179;54.350;10.102;2022-12-01T08:00:02;69.83;;;35.80;;
6292;SDS011;3179;54.350;10.102;2022-12-01T08:02:31;73.17;;;35.50;;
6292;SDS011;3179;54.350;10.102;2022-12-01T08:04:59;68.80;;;35.00;;
6292;SDS011;3179;54.350;10.102;2022-12-01T08:07:26;70.27;;;36.40;;
6292;SDS011;3179;54.350;10.102;2022-12-01T08:09:53;67.90;;;35.77;;
6292;SDS011;3179;54.350;10.102;2022-12-01T08:12:20;65.00;;;34.27;;
6292;SDS011;3179;54.350;10.102;2022-12-01T08:14:48;64.37;;;34.87;;
6292;SDS011;3179;54.350;10.102;2022-12-01T08:17:15;69.10;;;36.77;;
6292;SDS011;3179;54.350;10.102;2022-12-01T08:19:42;70.67;;;36.03;;
6292;SDS011;3179;54.350;10.102;2022-12-01T08:22:08;71.27;;;36.90;;
6292;SDS011;3179;54.350;10.102;2022-12-01T08:24:35;71.53;;;38.27;;
6292;SDS011;3179;54.350;10.102;2022-12-01T08:27:02;70.60;;;36.47;;
6292;SDS011;3179;54.350;10.102;2022-12-01T08:29:29;72.30;;;38.30;;
6292;SDS011;3179;54.350;10.102;2022-12-01T08:31:57;66.03;;;35.03;;
6292;SDS011;3179;54.350;10.102;2022-12-01T08:34:24;67.63;;;35.20;;
6292;SDS011;3179;54.350;10.102;2022-12-01T08:36:51;65.00;;;34.53;;
6292;SDS011;3179;54.350;10.102;2022-12-01T08:39:17;66.23;;;34.47;;
6292;SDS011;3179;54.350;10.102;2022-12-01T08:41:44;71.03;;;35.80;;
6292;SDS011;3179;54.350;10.102;2022-12-01T08:44:11;64.97;;;33.70;;
6292;SDS011;3179;54.350;10.102;2022-12-01T08:46:47;70.13;;;35.27;;
6292;SDS011;3179;54.350;10.102;2022-12-01T08:49:16;66.97;;;35.50;;
6292;SDS011;3179;54.350;10.102;2022-12-01T08:51:43;64.97;;;34.90;;
6292;SDS011;3179;54.350;10.102;2022-12-01T08:54:10;65.70;;;34.23;;
6292;SDS011;3179;54.350;10.102;2022-12-01T08:56:38;67.53;;;36.00;;
6292;SDS011;3179;54.350;10.102;2022-12-01T08:59:06;67.97;;;36.80;;
6292;SDS011;3179;54.350;10.102;2022-12-01T09:01:33;70.93;;;35.37;;
6292;SDS011;3179;54.350;10.102;2022-12-01T09:04:17;68.37;;;36.77;;
6292;SDS011;3179;54.350;10.102;2022-12-01T09:06:45;71.53;;;36.00;;
6292;SDS011;3179;54.350;10.102;2022-12-01T09:09:13;69.53;;;36.17;;
6292;SDS011;3179;54.350;10.102;2022-12-01T09:11:43;65.87;;;35.13;;
6292;SDS011;3179;54.350;10.102;2022-12-01T09:14:11;69.90;;;36.13;;
6292;SDS011;3179;54.350;10.102;2022-12-01T09:16:39;68.50;;;36.03;;
6292;SDS011;3179;54.350;10.102;2022-12-01T09:19:06;66.57;;;35.93;;
6292;SDS011;3179;54.350;10.102;2022-12-01T09:21:35;69.40;;;35.27;;
6292;SDS011;3179;54.350;10.102;2022-12-01T09:24:03;67.20;;;36.87;;
6292;SDS011;3179;54.350;10.102;2022-12-01T09:26:31;67.87;;;34.90;;
6292;SDS011;3179;54.350;10.102;2022-12-01T09:28:59;68.13;;;35.53;;
6292;SDS011;3179;54.350;10.102;2022-12-01T09:31:27;71.27;;;36.60;;
6292;SDS011;3179;54.350;10.102;2022-12-01T09:33:54;66.37;;;37.13;;
6292;SDS011;3179;54.350;10.102;2022-12-01T09:36:21;67.47;;;34.93;;
6292;SDS011;3179;54.350;10.102;2022-12-01T09:38:50;74.33;;;35.17;;
6292;SDS011;3179;54.350;10.102;2022-12-01T09:41:18;71.83;;;35.17;;
6292;SDS011;3179;54.350;10.102;2022-12-01T09:43:49;66.17;;;34.63;;
6292;SDS011;3179;54.350;10.102;2022-12-01T09:46:24;68.13;;;35.43;;
6292;SDS011;3179;54.350;10.102;2022-12-01T09:48:54;75.30;;;35.10;;
6292;SDS011;3179;54.350;10.102;2022-12-01T09:51:24;71.40;;;36.40;;
6292;SDS011;3179;54.350;10.102;2022-12-01T09:53:54;66.43;;;34.03;;
6292;SDS011;3179;54.350;10.102;2022-12-01T09:56:24;65.33;;;34.17;;
6292;SDS011;3179;54.350;10.102;2022-12-01T09:58:53;70.77;;;37.43;;
6292;SDS011;3179;54.350;10.102;2022-12-01T10:01:24;72.40;;;35.77;;
6292;SDS011;3179;54.350;10.102;2022-12-01T10:03:56;71.50;;;34.43;;
6292;SDS011;3179;54.350;10.102;2022-12-01T10:06:30;65.70;;;34.53;;
6292;SDS011;3179;54.350;10.102;2022-12-01T10:09:04;65.63;;;34.53;;
6292;SDS011;3179;54.350;10.102;2022-12-01T10:11:41;70.93;;;35.20;;
6292;SDS011;3179;54.350;10.102;2022-12-01T10:14:11;78.23;;;34.73;;
6292;SDS011;3179;54.350;10.102;2022-12-01T10:16:42;66.30;;;34.43;;
6292;SDS011;3179;54.350;10.102;2022-12-01T10:19:14;70.93;;;34.63;;
6292;SDS011;3179;54.350;10.102;2022-12-01T10:21:53;70.93;;;35.13;;
6292;SDS011;3179;54.350;10.102;2022-12-01T10:24:35;61.37;;;32.77;;
6292;SDS011;3179;54.350;10.102;2022-12-01T10:27:15;64.90;;;33.07;;
6292;SDS011;3179;54.350;10.102;2022-12-01T10:30:02;70.03;;;36.10;;
6292;SDS011;3179;54.350;10.102;2022-12-01T10:32:35;62.20;;;33.30;;
6292;SDS011;3179;54.350;10.102;2022-12-01T10:35:10;70.27;;;34.63;;
6292;SDS011;3179;54.350;10.102;2022-12-01T10:37:40;65.17;;;33.70;;
6292;SDS011;3179;54.350;10.102;2022-12-01T10:40:12;65.00;;;33.60;;
6292;SDS011;3179;54.350;10.102;2022-12-01T10:42:41;68.47;;;34.07;;
6292;SDS011;3179;54.350;10.102;2022-12-01T10:45:14;63.40;;;32.77;;
6292;SDS011;3179;54.350;10.102;2022-12-01T10:50:37;62.80;;;32.87;;
6292;SDS011;3179;54.350;10.102;2022-12-01T10:53:05;67.43;;;34.63;;
6292;SDS011;3179;54.350;10.102;2022-12-01T10:55:34;63.60;;;33.20;;
6292;SDS011;3179;54.350;10.102;2022-12-01T10:58:04;67.33;;;32.67;;
6292;SDS011;3179;54.350;10.102;2022-12-01T11:00:40;71.73;;;33.77;;
6292;SDS011;3179;54.350;10.102;2022-12-01T11:03:15;62.90;;;31.77;;
6292;SDS011;3179;54.350;10.102;2022-12-01T11:05:44;68.03;;;31.97;;
6292;SDS011;3179;54.350;10.102;2022-12-01T11:08:21;67.77;;;32.60;;
6292;SDS011;3179;54.350;10.102;2022-12-01T11:10:51;68.80;;;33.33;;
6292;SDS011;3179;54.350;10.102;2022-12-01T11:13:20;72.13;;;33.70;;
6292;SDS011;3179;54.350;10.102;2022-12-01T11:15:53;69.90;;;32.53;;
6292;SDS011;3179;54.350;10.102;2022-12-01T11:18:22;65.27;;;30.90;;
6292;SDS011;3179;54.350;10.102;2022-12-01T11:21:03;72.77;;;33.40;;
6292;SDS011;3179;54.350;10.102;2022-12-01T11:23:35;71.93;;;32.67;;
6292;SDS011;3179;54.350;10.102;2022-12-01T11:26:10;66.03;;;33.50;;
6292;SDS011;3179;54.350;10.102;2022-12-01T11:28:41;73.20;;;33.93;;
6292;SDS011;3179;54.350;10.102;2022-12-01T11:31:17;69.70;;;33.63;;
6292;SDS011;3179;54.350;10.102;2022-12-01T11:33:45;64.93;;;30.30;;
6292;SDS011;3179;54.350;10.102;2022-12-01T11:36:18;74.70;;;31.90;;
6292;SDS011;3179;54.350;10.102;2022-12-01T11:38:47;67.33;;;30.63;;
6292;SDS011;3179;54.350;10.102;2022-12-01T11:41:23;67.90;;;31.00;;
6292;SDS011;3179;54.350;10.102;2022-12-01T11:43:53;68.90;;;31.20;;
6292;SDS011;3179;54.350;10.102;2022-12-01T11:46:26;68.27;;;31.63;;
6292;SDS011;3179;54.350;10.102;2022-12-01T11:48:56;58.40;;;30.73;;
6292;SDS011;3179;54.350;10.102;2022-12-01T11:51:25;66.13;;;31.00;;
6292;SDS011;3179;54.350;10.102;2022-12-01T11:54:03;70.07;;;30.03;;
6292;SDS011;3179;54.350;10.102;2022-12-01T11:56:43;63.03;;;29.10;;
6292;SDS011;3179;54.350;10.102;2022-12-01T11:59:12;65.23;;;29.63;;
6292;SDS011;3179;54.350;10.102;2022-12-01T12:01:48;63.43;;;29.77;;
6292;SDS011;3179;54.350;10.102;2022-12-01T12:04:28;67.00;;;30.73;;
6292;SDS011;3179;54.350;10.102;2022-12-01T12:07:09;66.97;;;29.80;;
6292;SDS011;3179;54.350;10.102;2022-12-01T12:09:47;70.33;;;29.90;;
6292;SDS011;3179;54.350;10.102;2022-12-01T12:12:31;76.40;;;32.10;;
6292;SDS011;3179;54.350;10.102;2022-12-01T12:15:10;73.73;;;31.37;;
6292;SDS011;3179;54.350;10.102;2022-12-01T12:17:49;62.60;;;27.23;;
6292;SDS011;3179;54.350;10.102;2022-12-01T12:20:30;63.57;;;29.00;;
6292;SDS011;3179;54.350;10.102;2022-12-01T12:23:11;56.67;;;29.20;;
6292;SDS011;3179;54.350;10.102;2022-12-01T12:25:51;55.03;;;26.80;;
6292;SDS011;3179;54.350;10.102;2022-12-01T12:28:30;45.90;;;24.67;;
6292;SDS011;3179;54.350;10.102;2022-12-01T12:31:09;44.27;;;23.57;;
6292;SDS011;3179;54.350;10.102;2022-12-01T12:33:49;47.43;;;23.43;;
6292;SDS011;3179;54.350;10.102;2022-12-01T12:36:27;52.50;;;22.10;;
6292;SDS011;3179;54.350;10.102;2022-12-01T12:39:03;53.23;;;24.90;;
6292;SDS011;3179;54.350;10.102;2022-12-01T12:41:42;40.20;;;22.10;;
6292;SDS011;3179;54.350;10.102;2022-12-01T12:44:21;40.53;;;22.27;;
6292;SDS011;3179;54.350;10.102;2022-12-01T12:47:03;45.30;;;22.70;;
6292;SDS011;3179;54.350;10.102;2022-12-01T12:49:39;48.10;;;23.93;;
6292;SDS011;3179;54.350;10.102;2022-12-01T12:52:10;44.37;;;23.43;;
6292;SDS011;3179;54.350;10.102;2022-12-01T12:54:42;60.63;;;27.50;;
6292;SDS011;3179;54.350;10.102;2022-12-01T12:57:18;53.93;;;26.37;;
6292;SDS011;3179;54.350;10.102;2022-12-01T12:59:51;50.17;;;24.23;;
6292;SDS011;3179;54.350;10.102;2022-12-01T13:02:23;47.53;;;23.30;;
6292;SDS011;3179;54.350;10.102;2022-12-01T13:04:57;44.63;;;23.63;;
6292;SDS011;3179;54.350;10.102;2022-12-01T13:07:31;48.17;;;24.10;;
6292;SDS011;3179;54.350;10.102;2022-12-01T13:10:04;61.13;;;26.80;;
6292;SDS011;3179;54.350;10.102;2022-12-01T13:12:37;54.37;;;25.93;;
6292;SDS011;3179;54.350;10.102;2022-12-01T13:15:14;51.40;;;24.60;;
6292;SDS011;3179;54.350;10.102;2022-12-01T13:17:43;51.03;;;24.27;;
6292;SDS011;3179;54.350;10.102;2022-12-01T13:20:14;49.93;;;24.70;;
6292;SDS011;3179;54.350;10.102;2022-12-01T13:22:43;60.47;;;25.40;;
6292;SDS011;3179;54.350;10.102;2022-12-01T13:25:11;51.87;;;25.07;;
6292;SDS011;3179;54.350;10.102;2022-12-01T13:27:40;52.10;;;25.07;;
6292;SDS011;3179;54.350;10.102;2022-12-01T13:30:17;54.23;;;24.50;;
6292;SDS011;3179;54.350;10.102;2022-12-01T13:32:45;54.83;;;24.87;;
6292;SDS011;3179;54.350;10.102;2022-12-01T13:35:20;58.97;;;25.83;;
6292;SDS011;3179;54.350;10.102;2022-12-01T13:37:50;53.50;;;26.20;;
6292;SDS011;3179;54.350;10.102;2022-12-01T13:40:19;56.57;;;27.43;;
6292;SDS011;3179;54.350;10.102;2022-12-01T13:42:54;48.80;;;25.33;;
6292;SDS011;3179;54.350;10.102;2022-12-01T13:45:26;54.00;;;24.13;;
6292;SDS011;3179;54.350;10.102;2022-12-01T13:47:57;48.30;;;23.77;;
6292;SDS011;3179;54.350;10.102;2022-12-01T13:50:48;49.07;;;24.53;;
6292;SDS011;3179;54.350;10.102;2022-12-01T13:53:24;49.07;;;22.33;;
6292;SDS011;3179;54.350;10.102;2022-12-01T13:56:03;50.40;;;24.60;;
6292;SDS011;3179;54.350;10.102;2022-12-01T13:58:49;49.83;;;24.47;;
6292;SDS011;3179;54.350;10.102;2022-12-01T14:04:26;46.03;;;24.07;;
6292;SDS011;3179;54.350;10.102;2022-12-01T14:09:57;59.10;;;26.77;;
6292;SDS011;3179;54.350;10.102;2022-12-01T14:12:33;47.97;;;23.10;;
6292;SDS011;3179;54.350;10.102;2022-12-01T14:15:19;50.30;;;24.17;;
6292;SDS011;3179;54.350;10.102;2022-12-01T14:17:58;48.63;;;22.57;;
6292;SDS011;3179;54.350;10.102;2022-12-01T14:20:27;51.00;;;22.43;;
6292;SDS011;3179;54.350;10.102;2022-12-01T14:23:10;51.87;;;24.67;;
6292;SDS011;3179;54.350;10.102;2022-12-01T14:25:40;44.77;;;22.60;;
6292;SDS011;3179;54.350;10.102;2022-12-01T14:28:12;48.20;;;23.60;;
6292;SDS011;3179;54.350;10.102;2022-12-01T14:31:03;40.90;;;22.37;;
6292;SDS011;3179;54.350;10.102;2022-12-01T14:33:45;53.83;;;24.83;;
6292;SDS011;3179;54.350;10.102;2022-12-01T14:36:26;47.17;;;24.90;;
6292;SDS011;3179;54.350;10.102;2022-12-01T14:38:59;52.10;;;25.67;;
6292;SDS011;3179;54.350;10.102;2022-12-01T14:41:29;46.27;;;23.37;;
6292;SDS011;3179;54.350;10.102;2022-12-01T14:44:04;49.20;;;25.00;;
6292;SDS011;3179;54.350;10.102;2022-12-01T14:46:38;48.07;;;23.80;;
6292;SDS011;3179;54.350;10.102;2022-12-01T14:49:11;46.60;;;24.10;;
6292;SDS011;3179;54.350;10.102;2022-12-01T14:51:43;46.90;;;23.10;;
6292;SDS011;3179;54.350;10.102;2022-12-01T14:54:16;45.90;;;23.00;;
6292;SDS011;3179;54.350;10.102;2022-12-01T14:56:47;48.43;;;25.30;;
6292;SDS011;3179;54.350;10.102;2022-12-01T14:59:18;43.80;;;22.70;;
6292;SDS011;3179;54.350;10.102;2022-12-01T15:01:47;45.73;;;22.57;;
6292;SDS011;3179;54.350;10.102;2022-12-01T15:04:18;49.43;;;24.23;;
6292;SDS011;3179;54.350;10.102;2022-12-01T15:06:45;51.77;;;24.37;;